createdAt,value
2022-08-17T00:00:42.715Z,20.63
2022-08-17T00:03:10.515Z,20.02
2022-08-17T00:05:36.812Z,20.38
2022-08-17T00:08:03.075Z,19.85
2022-08-17T00:10:29.377Z,22.70
2022-08-17T00:12:58.647Z,21.65
2022-08-17T00:15:24.866Z,20.13
2022-08-17T00:17:51.130Z,23.77
2022-08-17T00:20:17.538Z,22.20
2022-08-17T00:22:46.274Z,23.37
2022-08-17T00:25:12.503Z,25.73
2022-08-17T00:27:38.772Z,19.10
2022-08-17T00:30:04.987Z,17.35
2022-08-17T00:33:15.778Z,18.67
2022-08-17T00:35:17.547Z,18.70
2022-08-17T00:37:43.775Z,22.88
2022-08-17T00:40:10.087Z,16.73
2022-08-17T00:42:36.438Z,17.75
2022-08-17T00:45:02.662Z,17.17
2022-08-17T00:47:28.907Z,16.75
2022-08-17T00:49:55.257Z,19.67
2022-08-17T00:52:21.545Z,15.60
2022-08-17T00:54:47.812Z,19.85
2022-08-17T00:57:14.102Z,20.92
2022-08-17T00:59:40.346Z,24.92
2022-08-17T01:02:06.602Z,19.52
2022-08-17T01:04:32.835Z,19.02
2022-08-17T01:06:59.063Z,18.65
2022-08-17T01:09:25.308Z,17.02
2022-08-17T01:11:51.578Z,18.08
2022-08-17T01:14:17.916Z,21.02
2022-08-17T01:16:44.180Z,16.60
2022-08-17T01:19:10.497Z,19.05
2022-08-17T01:21:36.751Z,18.83
2022-08-17T01:24:02.955Z,21.80
2022-08-17T01:26:29.255Z,19.08
2022-08-17T01:28:56.003Z,17.88
2022-08-17T01:31:22.305Z,21.08
2022-08-17T01:33:48.574Z,19.42
2022-08-17T01:36:14.881Z,24.65
2022-08-17T01:38:41.159Z,18.83
2022-08-17T01:41:07.389Z,21.27
2022-08-17T01:43:33.640Z,19.08
2022-08-17T01:46:03.138Z,21.65
2022-08-17T01:48:30.221Z,18.45
2022-08-17T01:50:56.452Z,20.48
2022-08-17T01:53:22.713Z,26.30
2022-08-17T01:55:48.953Z,16.17
2022-08-17T01:58:15.203Z,19.35
2022-08-17T02:00:59.714Z,20.85
2022-08-17T02:03:27.653Z,22.52
2022-08-17T02:05:53.908Z,16.67
2022-08-17T02:08:20.420Z,21.48
2022-08-17T02:10:58.798Z,23.45
2022-08-17T02:13:27.281Z,19.13
2022-08-17T02:15:53.534Z,21.08
2022-08-17T02:18:19.784Z,24.45
2022-08-17T02:20:46.123Z,17.63
2022-08-17T02:23:12.374Z,25.55
2022-08-17T02:25:38.594Z,17.98
2022-08-17T02:28:04.859Z,21.52
2022-08-17T02:31:00.938Z,21.23
2022-08-17T02:33:17.399Z,19.17
2022-08-17T02:35:46.558Z,25.95
2022-08-17T02:38:12.802Z,21.90
2022-08-17T02:40:39.058Z,19.88
2022-08-17T02:43:05.325Z,24.75
2022-08-17T02:45:31.647Z,20.30
2022-08-17T02:47:57.917Z,20.75
2022-08-17T02:50:24.131Z,20.33
2022-08-17T02:53:01.828Z,23.13
2022-08-17T02:55:28.867Z,21.83
2022-08-17T02:57:55.113Z,20.17
2022-08-17T03:00:21.347Z,20.35
2022-08-17T03:02:47.591Z,17.48
2022-08-17T03:05:13.818Z,18.25
2022-08-17T03:07:40.055Z,19.88
2022-08-17T03:10:06.297Z,23.42
2022-08-17T03:12:32.557Z,20.63
2022-08-17T03:14:58.780Z,19.88
2022-08-17T03:17:25.134Z,21.30
2022-08-17T03:19:51.441Z,21.52
2022-08-17T03:22:36.187Z,18.58
2022-08-17T03:25:03.996Z,18.88
2022-08-17T03:27:36.775Z,16.40
2022-08-17T03:30:05.734Z,25.13
2022-08-17T03:32:31.968Z,18.45
2022-08-17T03:34:58.208Z,31.27
2022-08-17T03:37:24.511Z,19.33
2022-08-17T03:39:50.801Z,30.55
2022-08-17T03:42:32.331Z,28.92
2022-08-17T03:44:59.101Z,22.65
2022-08-17T03:47:25.505Z,24.08
2022-08-17T03:49:51.726Z,21.15
2022-08-17T03:52:17.987Z,22.95
2022-08-17T03:54:44.218Z,22.48
2022-08-17T03:57:10.486Z,21.23
2022-08-17T03:59:36.725Z,17.17
2022-08-17T04:02:02.967Z,20.80
2022-08-17T04:04:29.195Z,18.90
2022-08-17T04:06:55.429Z,29.95
2022-08-17T04:09:21.640Z,22.95
2022-08-17T04:11:47.955Z,21.73
2022-08-17T04:14:14.314Z,20.38
2022-08-17T04:16:40.566Z,26.73
2022-08-17T04:19:06.787Z,21.00
2022-08-17T04:21:33.232Z,19.70
2022-08-17T04:23:59.461Z,19.70
2022-08-17T04:26:52.526Z,19.00
2022-08-17T04:29:12.060Z,23.13
2022-08-17T04:31:38.312Z,24.98
2022-08-17T04:34:04.549Z,22.80
2022-08-17T04:36:30.925Z,18.05
2022-08-17T04:38:58.329Z,21.58
2022-08-17T04:41:24.648Z,20.38
2022-08-17T04:43:50.895Z,20.15
2022-08-17T04:46:17.183Z,20.02
2022-08-17T04:48:43.552Z,23.85
2022-08-17T04:51:10.283Z,21.80
2022-08-17T04:53:36.715Z,21.10
2022-08-17T04:56:03.031Z,20.98
2022-08-17T04:58:29.274Z,22.38
2022-08-17T05:00:55.591Z,20.38
2022-08-17T05:03:21.835Z,26.45
2022-08-17T05:05:48.100Z,23.10
2022-08-17T05:08:14.714Z,23.58
2022-08-17T05:10:45.534Z,22.17
2022-08-17T05:13:12.071Z,20.15
2022-08-17T05:15:38.326Z,20.83
2022-08-17T05:18:11.246Z,23.17
2022-08-17T05:20:37.700Z,24.15
2022-08-17T05:23:03.951Z,24.95
2022-08-17T05:25:30.517Z,23.73
2022-08-17T05:28:00.683Z,22.02
2022-08-17T05:30:28.469Z,19.23
2022-08-17T05:32:55.249Z,20.65
2022-08-17T05:35:21.692Z,20.85
2022-08-17T05:37:48.119Z,21.15
2022-08-17T05:40:14.436Z,24.23
2022-08-17T05:42:41.036Z,24.05
2022-08-17T05:45:07.346Z,27.75
2022-08-17T05:47:33.814Z,24.42
2022-08-17T05:50:00.332Z,19.25
2022-08-17T05:52:28.622Z,23.50
2022-08-17T05:54:55.052Z,19.98
2022-08-17T05:57:22.218Z,27.73
2022-08-17T05:59:49.265Z,18.45
2022-08-17T06:02:15.594Z,16.80
2022-08-17T06:04:41.931Z,24.23
2022-08-17T06:07:08.292Z,22.98
2022-08-17T06:09:34.574Z,22.05
2022-08-17T06:12:00.936Z,18.95
2022-08-17T06:14:28.763Z,24.50
2022-08-17T06:16:55.114Z,20.25
2022-08-17T06:19:21.417Z,19.38
2022-08-17T06:21:47.881Z,20.15
2022-08-17T06:24:14.221Z,24.65
2022-08-17T06:26:43.282Z,16.95
2022-08-17T06:29:09.794Z,15.70
2022-08-17T06:31:45.273Z,19.70
2022-08-17T06:34:11.480Z,16.88
2022-08-17T06:36:37.731Z,20.70
2022-08-17T06:39:03.979Z,22.25
2022-08-17T06:41:30.248Z,15.25
2022-08-17T06:43:56.531Z,19.50
2022-08-17T06:46:22.818Z,15.57
2022-08-17T06:48:49.044Z,18.70
2022-08-17T06:51:15.368Z,16.45
2022-08-17T06:53:41.671Z,14.68
2022-08-17T06:56:07.951Z,16.02
2022-08-17T06:58:34.172Z,18.67
2022-08-17T07:01:00.450Z,18.80
2022-08-17T07:03:26.713Z,18.23
2022-08-17T07:05:52.966Z,15.05
2022-08-17T07:08:20.654Z,21.00
2022-08-17T07:10:46.908Z,15.38
2022-08-17T07:13:13.131Z,14.68
2022-08-17T07:15:39.651Z,17.83
2022-08-17T07:18:05.872Z,13.40
2022-08-17T07:20:32.384Z,17.25
2022-08-17T07:23:00.433Z,13.73
2022-08-17T07:25:26.968Z,17.17
2022-08-17T07:27:53.196Z,14.10
2022-08-17T07:30:19.648Z,16.77
2022-08-17T07:32:46.069Z,19.20
2022-08-17T07:35:12.524Z,24.40
2022-08-17T07:37:41.749Z,16.95
2022-08-17T07:40:15.442Z,16.73
2022-08-17T07:42:46.720Z,12.73
2022-08-17T07:45:13.321Z,13.57
2022-08-17T07:47:39.567Z,14.07
2022-08-17T07:50:05.854Z,13.13
2022-08-17T07:52:51.185Z,15.32
2022-08-17T07:55:18.286Z,14.88
2022-08-17T07:57:44.615Z,17.00
2022-08-17T08:00:16.411Z,15.27
2022-08-17T08:02:42.849Z,8.90
2022-08-17T08:05:09.142Z,20.80
2022-08-17T08:07:36.413Z,10.95
2022-08-17T08:10:02.731Z,12.50
2022-08-17T08:12:33.673Z,15.07
2022-08-17T08:15:00.201Z,14.30
2022-08-17T08:17:26.463Z,12.73
2022-08-17T08:19:52.751Z,9.18
2022-08-17T08:22:19.101Z,7.90
2022-08-17T08:24:45.439Z,13.18
2022-08-17T08:27:11.657Z,11.68
2022-08-17T08:29:37.921Z,11.32
2022-08-17T08:32:04.158Z,8.52
2022-08-17T08:34:58.708Z,6.75
2022-08-17T08:37:24.970Z,7.22
2022-08-17T08:39:53.995Z,18.00
2022-08-17T08:42:20.474Z,13.85
2022-08-17T08:45:01.278Z,10.10
2022-08-17T08:47:31.489Z,8.82
2022-08-17T08:50:04.402Z,8.63
2022-08-17T08:52:31.201Z,8.95
2022-08-17T08:54:57.519Z,10.07
2022-08-17T08:57:28.017Z,11.18
2022-08-17T08:59:58.399Z,7.90
2022-08-17T09:02:24.804Z,8.70
2022-08-17T09:05:13.440Z,8.50
2022-08-17T09:07:37.427Z,8.23
2022-08-17T09:10:03.732Z,9.15
2022-08-17T09:12:30.025Z,8.15
2022-08-17T09:14:56.305Z,10.10
2022-08-17T09:17:22.543Z,11.18
2022-08-17T09:19:48.792Z,12.93
2022-08-17T09:22:15.021Z,9.00
2022-08-17T09:24:41.274Z,7.20
2022-08-17T09:27:07.557Z,6.55
2022-08-17T09:29:33.804Z,8.77
2022-08-17T09:32:00.129Z,6.97
2022-08-17T09:34:29.601Z,8.43
2022-08-17T09:36:59.555Z,10.63
2022-08-17T09:39:26.256Z,8.38
2022-08-17T09:41:52.732Z,7.85
2022-08-17T09:44:23.079Z,8.13
2022-08-17T09:46:50.075Z,8.30
2022-08-17T09:49:16.382Z,10.43
2022-08-17T09:51:42.651Z,6.78
2022-08-17T09:54:37.097Z,6.63
2022-08-17T09:57:18.166Z,6.85
2022-08-17T09:59:41.876Z,8.02
2022-08-17T10:02:08.219Z,14.50
2022-08-17T10:04:39.492Z,14.82
2022-08-17T10:07:05.762Z,4.70
2022-08-17T10:09:32.021Z,5.63
2022-08-17T10:11:58.861Z,9.43
2022-08-17T10:14:37.640Z,12.80
2022-08-17T10:17:10.085Z,9.23
2022-08-17T10:19:36.394Z,12.93
2022-08-17T10:22:32.791Z,6.75
2022-08-17T10:25:01.950Z,7.22
2022-08-17T10:27:35.144Z,4.35
2022-08-17T10:30:01.488Z,8.68
2022-08-17T10:32:28.433Z,4.22
2022-08-17T10:34:54.851Z,3.80
2022-08-17T10:37:21.193Z,6.00
2022-08-17T10:39:52.139Z,7.80
2022-08-17T10:42:30.406Z,11.05
2022-08-17T10:44:59.228Z,6.13
2022-08-17T10:47:25.674Z,5.22
2022-08-17T10:49:51.960Z,10.52
2022-08-17T10:52:18.254Z,7.50
2022-08-17T10:54:44.475Z,5.60
2022-08-17T10:57:10.959Z,5.60
2022-08-17T10:59:37.185Z,8.48
2022-08-17T11:02:03.435Z,4.13
2022-08-17T11:04:29.839Z,5.75
2022-08-17T11:06:56.188Z,3.97
2022-08-17T11:09:22.443Z,5.85
2022-08-17T11:11:48.706Z,6.45
2022-08-17T11:14:14.969Z,10.63
2022-08-17T11:16:41.200Z,9.43
2022-08-17T11:19:07.443Z,6.22
2022-08-17T11:21:33.669Z,7.22
2022-08-17T11:23:59.902Z,4.80
2022-08-17T11:26:26.207Z,5.55
2022-08-17T11:28:53.040Z,11.88
2022-08-17T11:31:19.448Z,2.75
2022-08-17T11:34:04.317Z,6.10
2022-08-17T11:36:30.549Z,5.35
2022-08-17T11:38:56.810Z,7.75
2022-08-17T11:41:23.604Z,6.32
2022-08-17T11:43:49.890Z,6.05
2022-08-17T11:46:16.252Z,5.35
2022-08-17T11:48:42.475Z,9.70
2022-08-17T11:51:08.693Z,4.28
2022-08-17T11:53:35.012Z,8.07
2022-08-17T11:56:01.320Z,6.50
2022-08-17T11:58:27.561Z,7.28
2022-08-17T12:00:53.784Z,3.97
2022-08-17T12:03:20.054Z,7.28
2022-08-17T12:05:46.449Z,5.18
2022-08-17T12:08:12.781Z,7.85
2022-08-17T12:10:38.990Z,8.18
2022-08-17T12:13:05.233Z,4.82
2022-08-17T12:15:31.453Z,7.43
2022-08-17T12:17:58.150Z,4.25
2022-08-17T12:20:24.537Z,7.68
2022-08-17T12:22:50.859Z,9.27
2022-08-17T12:25:17.255Z,9.02
2022-08-17T12:28:04.239Z,4.40
2022-08-17T12:30:29.751Z,2.95
2022-08-17T12:32:56.169Z,9.38
2022-08-17T12:35:22.513Z,8.23
2022-08-17T12:37:48.827Z,7.90
2022-08-17T12:40:15.147Z,7.75
2022-08-17T12:42:41.562Z,7.95
2022-08-17T12:45:07.812Z,7.45
2022-08-17T12:47:34.045Z,8.43
2022-08-17T12:50:03.186Z,8.52
2022-08-17T12:52:29.454Z,10.23
2022-08-17T12:54:55.710Z,9.05
2022-08-17T12:57:21.954Z,5.75
2022-08-17T12:59:48.199Z,8.30
2022-08-17T13:02:15.011Z,4.07
2022-08-17T13:04:41.254Z,8.10
2022-08-17T13:07:07.516Z,6.25
2022-08-17T13:09:40.472Z,9.00
2022-08-17T13:12:07.502Z,8.75
2022-08-17T13:14:34.238Z,5.80
2022-08-17T13:17:00.575Z,4.57
2022-08-17T13:19:39.829Z,6.55
2022-08-17T13:22:07.610Z,6.78
2022-08-17T13:24:38.282Z,10.68
2022-08-17T13:27:07.976Z,10.60
2022-08-17T13:29:34.724Z,5.43
2022-08-17T13:32:04.224Z,9.18
2022-08-17T13:34:31.334Z,7.82
2022-08-17T13:36:59.557Z,7.53
2022-08-17T13:39:26.137Z,13.52
2022-08-17T13:41:52.551Z,9.43
2022-08-17T13:44:18.780Z,14.77
2022-08-17T13:46:45.139Z,3.85
2022-08-17T13:49:18.642Z,6.57
2022-08-17T13:51:44.980Z,5.25
2022-08-17T13:54:11.323Z,6.45
2022-08-17T13:56:39.569Z,13.93
2022-08-17T13:59:06.056Z,8.43
2022-08-17T14:01:32.432Z,4.30
2022-08-17T14:03:58.751Z,7.50
2022-08-17T14:06:52.042Z,7.07
2022-08-17T14:09:11.281Z,8.75
2022-08-17T14:11:37.531Z,6.68
2022-08-17T14:14:03.800Z,5.28
2022-08-17T14:16:30.107Z,7.60
2022-08-17T14:18:57.486Z,5.10
2022-08-17T14:21:23.783Z,8.00
2022-08-17T14:23:54.381Z,13.43
2022-08-17T14:26:21.334Z,6.22
2022-08-17T14:28:49.457Z,13.52
2022-08-17T14:31:22.906Z,11.93
2022-08-17T14:33:49.178Z,6.00
2022-08-17T14:36:15.472Z,15.80
2022-08-17T14:38:41.724Z,13.40
2022-08-17T14:41:08.126Z,7.50
2022-08-17T14:43:34.403Z,20.75
2022-08-17T14:46:00.684Z,5.43
2022-08-17T14:48:26.956Z,8.63
2022-08-17T14:50:53.249Z,4.90
2022-08-17T14:53:19.619Z,7.90
2022-08-17T14:55:47.119Z,6.57
2022-08-17T14:58:14.943Z,5.55
2022-08-17T15:00:41.173Z,7.45
2022-08-17T15:03:07.411Z,7.80
2022-08-17T15:05:33.712Z,8.95
2022-08-17T15:08:00.285Z,7.25
2022-08-17T15:10:26.572Z,4.82
2022-08-17T15:12:52.841Z,6.55
2022-08-17T15:15:19.167Z,5.80
2022-08-17T15:17:46.128Z,10.18
2022-08-17T15:20:21.117Z,11.23
2022-08-17T15:22:47.372Z,5.95
2022-08-17T15:25:13.606Z,5.07
2022-08-17T15:27:39.871Z,6.97
2022-08-17T15:30:07.325Z,5.65
2022-08-17T15:32:33.780Z,8.27
2022-08-17T15:35:00.114Z,7.13
2022-08-17T15:37:26.384Z,8.68
2022-08-17T15:39:52.688Z,5.53
2022-08-17T15:42:18.960Z,7.18
2022-08-17T15:44:45.167Z,12.25
2022-08-17T15:47:11.417Z,8.27
2022-08-17T15:49:38.715Z,6.85
2022-08-17T15:52:04.942Z,8.82
2022-08-17T15:54:31.655Z,8.60
2022-08-17T15:57:01.019Z,7.68
2022-08-17T15:59:27.238Z,7.50
2022-08-17T16:03:15.105Z,7.05
2022-08-17T16:04:41.441Z,8.13
2022-08-17T16:07:10.478Z,9.85
2022-08-17T16:09:36.739Z,6.38
2022-08-17T16:12:02.993Z,8.32
2022-08-17T16:14:34.008Z,8.90
2022-08-17T16:17:01.450Z,5.75
2022-08-17T16:19:27.776Z,13.75
2022-08-17T16:21:54.023Z,9.40
2022-08-17T16:24:20.335Z,11.57
2022-08-17T16:26:46.625Z,8.93
2022-08-17T16:29:12.845Z,9.82
2022-08-17T16:31:39.171Z,7.47
2022-08-17T16:34:16.776Z,5.63
2022-08-17T16:36:54.658Z,9.85
2022-08-17T16:39:22.078Z,10.68
2022-08-17T16:41:48.645Z,11.23
2022-08-17T16:44:15.496Z,5.45
2022-08-17T16:46:45.983Z,5.57
2022-08-17T16:49:12.410Z,12.13
2022-08-17T16:51:55.866Z,27.50
2022-08-17T16:54:22.121Z,13.80
2022-08-17T16:56:48.363Z,14.25
2022-08-17T16:59:30.229Z,13.05
2022-08-17T17:01:58.040Z,18.30
2022-08-17T17:04:24.390Z,13.02
2022-08-17T17:06:50.758Z,8.88
2022-08-17T17:09:16.961Z,11.20
2022-08-17T17:11:43.230Z,7.47
2022-08-17T17:14:09.482Z,8.23
2022-08-17T17:16:35.840Z,7.50
2022-08-17T17:19:02.127Z,8.45
2022-08-17T17:21:28.561Z,5.32
2022-08-17T17:23:54.785Z,10.77
2022-08-17T17:26:21.076Z,10.70
2022-08-17T17:28:47.306Z,10.38
2022-08-17T17:31:13.549Z,5.20
2022-08-17T17:33:39.777Z,7.38
2022-08-17T17:36:06.079Z,9.70
2022-08-17T17:38:32.307Z,8.48
2022-08-17T17:41:02.496Z,11.90
2022-08-17T17:43:39.022Z,8.43
2022-08-17T17:46:28.693Z,12.20
2022-08-17T17:48:52.965Z,11.63
2022-08-17T17:52:05.285Z,10.23
2022-08-17T17:54:05.470Z,11.50
2022-08-17T17:56:44.157Z,9.70
2022-08-17T18:01:39.334Z,9.15
2022-08-17T18:04:17.017Z,9.23
2022-08-17T18:06:47.049Z,10.85
2022-08-17T18:09:15.477Z,11.10
2022-08-17T18:11:45.749Z,18.50
2022-08-17T18:14:17.565Z,11.63
2022-08-17T18:16:43.919Z,10.73
2022-08-17T18:19:11.497Z,22.60
2022-08-17T18:21:39.119Z,10.20
2022-08-17T18:24:06.578Z,15.32
2022-08-17T18:26:34.443Z,18.17
2022-08-17T18:29:00.980Z,8.25
2022-08-17T18:31:27.377Z,8.85
2022-08-17T18:33:53.607Z,11.43
2022-08-17T18:36:19.881Z,12.13
2022-08-17T18:38:46.595Z,13.45
2022-08-17T18:41:13.028Z,7.82
2022-08-17T18:43:52.770Z,14.68
2022-08-17T18:46:28.298Z,11.65
2022-08-17T18:48:55.972Z,9.57
2022-08-17T18:51:39.701Z,11.18
2022-08-17T18:54:08.044Z,7.70
2022-08-17T18:56:34.539Z,11.07
2022-08-17T18:59:00.811Z,10.02
2022-08-17T19:01:41.941Z,16.60
2022-08-17T19:04:13.600Z,19.67
2022-08-17T19:06:39.920Z,15.02
2022-08-17T19:09:06.356Z,12.80
2022-08-17T19:11:32.611Z,12.15
2022-08-17T19:13:58.918Z,17.40
2022-08-17T19:16:25.162Z,16.58
2022-08-17T19:18:51.435Z,16.77
2022-08-17T19:21:18.067Z,12.88
2022-08-17T19:23:53.706Z,46.97
2022-08-17T19:26:55.381Z,10.10
2022-08-17T19:29:06.872Z,11.75
2022-08-17T19:31:33.151Z,12.40
2022-08-17T19:33:59.484Z,9.57
2022-08-17T19:36:25.848Z,17.48
2022-08-17T19:38:52.101Z,11.68
2022-08-17T19:41:18.374Z,14.10
2022-08-17T19:43:44.863Z,14.10
2022-08-17T19:46:11.173Z,11.95
2022-08-17T19:48:37.403Z,11.95
2022-08-17T19:51:03.658Z,12.25
2022-08-17T19:53:42.000Z,11.68
2022-08-17T19:56:16.189Z,10.30
2022-08-17T19:58:42.424Z,10.25
2022-08-17T20:01:11.074Z,11.02
2022-08-17T20:03:37.385Z,12.50
2022-08-17T20:06:18.832Z,10.38
2022-08-17T20:08:45.153Z,11.43
2022-08-17T20:11:11.410Z,9.13
2022-08-17T20:13:37.762Z,11.65
2022-08-17T20:16:04.018Z,12.38
2022-08-17T20:18:30.259Z,12.80
2022-08-17T20:20:56.586Z,11.27
2022-08-17T20:23:22.815Z,11.80
2022-08-17T20:25:49.088Z,12.30
2022-08-17T20:28:15.300Z,12.55
2022-08-17T20:30:42.315Z,11.55
2022-08-17T20:33:08.525Z,12.60
2022-08-17T20:35:39.435Z,10.73
2022-08-17T20:38:05.631Z,18.00
2022-08-17T20:40:31.887Z,22.95
2022-08-17T20:42:58.107Z,9.85
2022-08-17T20:45:24.449Z,12.88
2022-08-17T20:48:15.994Z,12.77
2022-08-17T20:50:36.967Z,15.23
2022-08-17T20:53:03.213Z,10.40
2022-08-17T20:55:29.457Z,12.02
2022-08-17T20:57:55.683Z,13.07
2022-08-17T21:00:21.911Z,9.13
2022-08-17T21:02:48.140Z,12.85
2022-08-17T21:05:14.397Z,10.48
2022-08-17T21:07:42.710Z,13.30
2022-08-17T21:10:09.998Z,13.68
2022-08-17T21:12:36.392Z,10.13
2022-08-17T21:15:02.657Z,12.20
2022-08-17T21:17:28.957Z,11.52
2022-08-17T21:20:10.447Z,11.57
2022-08-17T21:22:37.507Z,13.80
2022-08-17T21:25:03.777Z,18.15
2022-08-17T21:27:30.067Z,13.23
2022-08-17T21:29:56.516Z,10.88
2022-08-17T21:32:24.423Z,10.70
2022-08-17T21:34:51.604Z,10.57
2022-08-17T21:37:17.871Z,14.25
2022-08-17T21:39:44.137Z,12.25
2022-08-17T21:42:10.411Z,12.57
2022-08-17T21:44:36.713Z,13.93
2022-08-17T21:47:02.979Z,11.43
2022-08-17T21:49:29.221Z,12.88
2022-08-17T21:52:04.004Z,14.38
2022-08-17T21:54:30.263Z,16.33
2022-08-17T21:56:56.554Z,15.20
2022-08-17T21:59:22.920Z,14.02
2022-08-17T22:01:50.707Z,13.40
2022-08-17T22:04:17.017Z,13.18
2022-08-17T22:06:43.305Z,15.93
2022-08-17T22:09:23.726Z,11.45
2022-08-17T22:11:49.979Z,12.50
2022-08-17T22:14:16.239Z,15.38
2022-08-17T22:16:43.748Z,13.45
2022-08-17T22:19:10.020Z,12.35
2022-08-17T22:21:36.255Z,14.85
2022-08-17T22:24:02.499Z,13.70
2022-08-17T22:26:28.724Z,10.98
2022-08-17T22:28:54.960Z,13.35
2022-08-17T22:31:21.215Z,13.52
2022-08-17T22:33:47.579Z,11.32
2022-08-17T22:36:13.808Z,12.10
2022-08-17T22:38:40.587Z,12.55
2022-08-17T22:41:06.925Z,70.30
2022-08-17T22:43:34.976Z,20.40
2022-08-17T22:46:01.306Z,12.88
2022-08-17T22:48:27.708Z,11.38
2022-08-17T22:50:54.071Z,12.55
2022-08-17T22:53:20.319Z,10.75
2022-08-17T22:55:46.602Z,10.80
2022-08-17T22:58:12.854Z,11.98
2022-08-17T23:00:39.121Z,12.35
2022-08-17T23:03:05.413Z,13.98
2022-08-17T23:05:31.717Z,20.85
2022-08-17T23:07:57.957Z,16.02
2022-08-17T23:10:24.209Z,14.07
2022-08-17T23:12:50.447Z,11.95
2022-08-17T23:15:16.670Z,20.67
2022-08-17T23:17:42.890Z,13.25
2022-08-17T23:20:11.575Z,12.98
2022-08-17T23:22:37.781Z,12.52
2022-08-17T23:25:18.891Z,14.75
2022-08-17T23:27:46.854Z,14.35
2022-08-17T23:30:13.158Z,22.08
2022-08-17T23:32:39.396Z,13.60
2022-08-17T23:35:19.735Z,15.65
2022-08-17T23:38:05.634Z,12.50
2022-08-17T23:40:31.918Z,12.50
2022-08-17T23:42:58.220Z,12.77
2022-08-17T23:45:24.882Z,15.25
2022-08-17T23:47:51.423Z,10.57
2022-08-17T23:50:17.879Z,13.55
2022-08-17T23:52:44.821Z,11.93
2022-08-17T23:55:11.082Z,16.83
2022-08-17T23:57:37.309Z,13.57
